sensor_id;sensor_type;location;lat;lon;timestamp;pressure;altitude;pressure_sealevel;temperature;humidity
58757;BME280;44527;47.460;19.016;2023-01-28T00:02:13;100323.03;;;3.17;73.39
58757;BME280;44527;47.460;19.016;2023-01-28T00:05:16;100318.59;;;2.95;74.82
58757;BME280;44527;47.460;19.016;2023-01-28T00:08:20;100328.66;;;3.05;75.07
58757;BME280;44527;47.460;19.016;2023-01-28T00:11:22;100326.56;;;2.91;75.41
58757;BME280;44527;47.460;19.016;2023-01-28T00:14:24;100326.69;;;2.86;74.91
58757;BME280;44527;47.460;19.016;2023-01-28T00:17:27;100329.56;;;2.79;73.69
58757;BME280;44527;47.460;19.016;2023-01-28T00:20:30;100329.81;;;2.96;75.53
58757;BME280;44527;47.460;19.016;2023-01-28T00:23:35;100333.62;;;2.86;76.61
58757;BME280;44527;47.460;19.016;2023-01-28T00:26:37;100334.59;;;2.57;78.01
58757;BME280;44527;47.460;19.016;2023-01-28T00:29:40;100336.63;;;2.48;78.81
58757;BME280;44527;47.460;19.016;2023-01-28T00:32:42;100332.75;;;2.60;79.10
58757;BME280;44527;47.460;19.016;2023-01-28T00:35:46;100329.38;;;2.85;77.34
58757;BME280;44527;47.460;19.016;2023-01-28T00:38:54;100342.25;;;2.61;79.19
58757;BME280;44527;47.460;19.016;2023-01-28T00:41:57;100338.22;;;2.52;78.27
58757;BME280;44527;47.460;19.016;2023-01-28T00:44:59;100336.66;;;2.47;78.78
58757;BME280;44527;47.460;19.016;2023-01-28T00:48:03;100344.66;;;2.66;78.06
58757;BME280;44527;47.460;19.016;2023-01-28T00:51:06;100339.56;;;2.89;77.05
58757;BME280;44527;47.460;19.016;2023-01-28T00:54:11;100350.88;;;3.12;76.60
58757;BME280;44527;47.460;19.016;2023-01-28T00:57:13;100346.00;;;2.78;72.64
58757;BME280;44527;47.460;19.016;2023-01-28T01:00:16;100353.84;;;3.01;72.63
58757;BME280;44527;47.460;19.016;2023-01-28T01:03:20;100357.28;;;3.02;70.73
58757;BME280;44527;47.460;19.016;2023-01-28T01:06:23;100348.78;;;2.98;69.98
58757;BME280;44527;47.460;19.016;2023-01-28T01:09:26;100350.53;;;2.97;69.21
58757;BME280;44527;47.460;19.016;2023-01-28T01:12:29;100357.28;;;3.02;68.63
58757;BME280;44527;47.460;19.016;2023-01-28T01:15:32;100348.69;;;2.99;68.63
58757;BME280;44527;47.460;19.016;2023-01-28T01:18:35;100346.13;;;2.99;69.50
58757;BME280;44527;47.460;19.016;2023-01-28T01:21:37;100349.37;;;3.06;69.07
58757;BME280;44527;47.460;19.016;2023-01-28T01:24:40;100343.00;;;2.90;69.49
58757;BME280;44527;47.460;19.016;2023-01-28T01:27:44;100349.09;;;2.89;69.59
58757;BME280;44527;47.460;19.016;2023-01-28T01:30:49;100349.22;;;2.84;69.94
58757;BME280;44527;47.460;19.016;2023-01-28T01:34:00;100353.78;;;3.03;68.86
58757;BME280;44527;47.460;19.016;2023-01-28T01:37:02;100355.44;;;3.05;69.47
58757;BME280;44527;47.460;19.016;2023-01-28T01:40:07;100349.16;;;3.12;69.17
58757;BME280;44527;47.460;19.016;2023-01-28T01:43:16;100359.47;;;2.89;69.41
58757;BME280;44527;47.460;19.016;2023-01-28T01:49:37;100357.81;;;2.86;70.25
58757;BME280;44527;47.460;19.016;2023-01-28T01:52:40;100352.00;;;2.80;70.47
58757;BME280;44527;47.460;19.016;2023-01-28T01:55:49;100360.06;;;2.97;70.70
58757;BME280;44527;47.460;19.016;2023-01-28T01:58:54;100365.53;;;3.13;70.09
58757;BME280;44527;47.460;19.016;2023-01-28T02:02:00;100363.69;;;3.16;69.45
58757;BME280;44527;47.460;19.016;2023-01-28T02:05:06;100368.56;;;3.26;70.04
58757;BME280;44527;47.460;19.016;2023-01-28T02:08:09;100366.19;;;3.19;70.18
58757;BME280;44527;47.460;19.016;2023-01-28T02:11:28;100355.53;;;3.02;71.36
58757;BME280;44527;47.460;19.016;2023-01-28T02:14:34;100363.09;;;3.08;71.14
58757;BME280;44527;47.460;19.016;2023-01-28T02:17:39;100367.22;;;3.14;70.84
58757;BME280;44527;47.460;19.016;2023-01-28T02:28:44;100356.66;;;2.95;72.07
58757;BME280;44527;47.460;19.016;2023-01-28T02:31:59;100359.88;;;3.02;72.24
58757;BME280;44527;47.460;19.016;2023-01-28T02:35:34;100355.75;;;2.96;71.96
58757;BME280;44527;47.460;19.016;2023-01-28T02:38:47;100346.78;;;3.06;73.12
58757;BME280;44527;47.460;19.016;2023-01-28T02:41:56;100344.94;;;3.08;71.17
58757;BME280;44527;47.460;19.016;2023-01-28T02:45:00;100342.56;;;2.77;72.58
58757;BME280;44527;47.460;19.016;2023-01-28T02:48:03;100343.06;;;2.88;73.37
58757;BME280;44527;47.460;19.016;2023-01-28T02:51:29;100354.31;;;2.87;73.98
58757;BME280;44527;47.460;19.016;2023-01-28T03:01:26;100353.75;;;2.79;75.38
58757;BME280;44527;47.460;19.016;2023-01-28T03:04:34;100349.50;;;2.76;75.73
58757;BME280;44527;47.460;19.016;2023-01-28T03:07:39;100349.31;;;2.56;77.69
58757;BME280;44527;47.460;19.016;2023-01-28T03:10:42;100348.56;;;2.52;78.38
58757;BME280;44527;47.460;19.016;2023-01-28T03:13:45;100347.00;;;2.48;79.54
58757;BME280;44527;47.460;19.016;2023-01-28T03:21:04;100347.22;;;2.67;79.08
58757;BME280;44527;47.460;19.016;2023-01-28T03:24:34;100358.28;;;2.72;78.42
58757;BME280;44527;47.460;19.016;2023-01-28T03:28:04;100345.81;;;2.57;79.26
58757;BME280;44527;47.460;19.016;2023-01-28T03:31:29;100348.97;;;2.40;80.33
58757;BME280;44527;47.460;19.016;2023-01-28T03:34:51;100344.53;;;2.44;80.49
58757;BME280;44527;47.460;19.016;2023-01-28T03:38:15;100354.28;;;2.62;79.40
58757;BME280;44527;47.460;19.016;2023-01-28T03:41:24;100344.59;;;2.42;79.50
58757;BME280;44527;47.460;19.016;2023-01-28T03:44:28;100352.31;;;2.44;79.74
58757;BME280;44527;47.460;19.016;2023-01-28T03:47:49;100357.44;;;2.45;79.24
58757;BME280;44527;47.460;19.016;2023-01-28T03:50:54;100360.78;;;2.49;79.29
58757;BME280;44527;47.460;19.016;2023-01-28T03:53:57;100357.69;;;2.38;80.00
58757;BME280;44527;47.460;19.016;2023-01-28T03:57:00;100368.09;;;2.63;79.44
58757;BME280;44527;47.460;19.016;2023-01-28T04:00:03;100358.94;;;2.52;77.64
58757;BME280;44527;47.460;19.016;2023-01-28T04:03:17;100366.72;;;2.52;77.99
58757;BME280;44527;47.460;19.016;2023-01-28T04:06:21;100367.41;;;2.31;79.87
58757;BME280;44527;47.460;19.016;2023-01-28T04:09:24;100360.97;;;2.43;79.76
58757;BME280;44527;47.460;19.016;2023-01-28T04:12:27;100363.13;;;2.30;80.28
58757;BME280;44527;47.460;19.016;2023-01-28T04:15:29;100362.75;;;2.41;79.89
58757;BME280;44527;47.460;19.016;2023-01-28T04:18:33;100359.25;;;2.42;79.81
58757;BME280;44527;47.460;19.016;2023-01-28T04:21:37;100361.09;;;2.40;79.71
58757;BME280;44527;47.460;19.016;2023-01-28T04:24:40;100364.97;;;2.53;79.77
58757;BME280;44527;47.460;19.016;2023-01-28T04:27:42;100367.16;;;2.65;79.06
58757;BME280;44527;47.460;19.016;2023-01-28T04:30:45;100374.03;;;2.66;77.40
58757;BME280;44527;47.460;19.016;2023-01-28T04:33:49;100375.72;;;2.67;77.97
58757;BME280;44527;47.460;19.016;2023-01-28T04:36:53;100376.53;;;2.69;77.70
58757;BME280;44527;47.460;19.016;2023-01-28T04:39:55;100374.41;;;2.54;78.11
58757;BME280;44527;47.460;19.016;2023-01-28T04:43:02;100373.94;;;2.69;78.00
58757;BME280;44527;47.460;19.016;2023-01-28T04:46:04;100374.09;;;2.65;76.67
58757;BME280;44527;47.460;19.016;2023-01-28T04:49:07;100376.22;;;2.79;74.79
58757;BME280;44527;47.460;19.016;2023-01-28T04:52:10;100382.94;;;2.84;74.02
58757;BME280;44527;47.460;19.016;2023-01-28T04:55:13;100375.50;;;3.00;74.15
58757;BME280;44527;47.460;19.016;2023-01-28T04:58:16;100387.25;;;2.85;73.73
58757;BME280;44527;47.460;19.016;2023-01-28T05:01:19;100387.28;;;2.84;74.52
58757;BME280;44527;47.460;19.016;2023-01-28T05:04:22;100387.38;;;2.81;75.29
58757;BME280;44527;47.460;19.016;2023-01-28T05:07:26;100401.12;;;2.83;74.82
58757;BME280;44527;47.460;19.016;2023-01-28T05:10:29;100394.31;;;2.80;74.57
58757;BME280;44527;47.460;19.016;2023-01-28T05:13:32;100400.56;;;2.99;74.69
58757;BME280;44527;47.460;19.016;2023-01-28T05:16:34;100400.03;;;2.90;74.33
58757;BME280;44527;47.460;19.016;2023-01-28T05:19:38;100402.78;;;2.85;75.50
58757;BME280;44527;47.460;19.016;2023-01-28T05:22:42;100407.88;;;2.88;76.20
58757;BME280;44527;47.460;19.016;2023-01-28T05:25:49;100413.31;;;3.06;76.34
58757;BME280;44527;47.460;19.016;2023-01-28T05:28:51;100414.81;;;2.88;75.48
58757;BME280;44527;47.460;19.016;2023-01-28T05:31:54;100407.44;;;2.75;75.27
58757;BME280;44527;47.460;19.016;2023-01-28T05:34:57;100412.53;;;3.04;74.25
58757;BME280;44527;47.460;19.016;2023-01-28T05:38:00;100417.75;;;3.02;73.96
58757;BME280;44527;47.460;19.016;2023-01-28T05:41:03;100408.91;;;2.83;74.60
58757;BME280;44527;47.460;19.016;2023-01-28T05:44:06;100412.22;;;2.88;74.19
58757;BME280;44527;47.460;19.016;2023-01-28T05:47:09;100408.38;;;2.73;74.80
58757;BME280;44527;47.460;19.016;2023-01-28T05:50:12;100418.97;;;2.92;74.58
58757;BME280;44527;47.460;19.016;2023-01-28T05:53:17;100416.37;;;2.92;74.74
58757;BME280;44527;47.460;19.016;2023-01-28T05:56:19;100424.00;;;2.96;74.46
58757;BME280;44527;47.460;19.016;2023-01-28T05:59:22;100420.84;;;2.88;74.28
58757;BME280;44527;47.460;19.016;2023-01-28T06:02:25;100423.53;;;2.85;74.69
58757;BME280;44527;47.460;19.016;2023-01-28T06:05:30;100419.41;;;2.78;74.81
58757;BME280;44527;47.460;19.016;2023-01-28T06:08:35;100430.66;;;2.79;75.34
58757;BME280;44527;47.460;19.016;2023-01-28T06:11:38;100440.16;;;2.78;75.13
58757;BME280;44527;47.460;19.016;2023-01-28T06:14:41;100436.19;;;2.68;75.86
58757;BME280;44527;47.460;19.016;2023-01-28T06:17:44;100441.53;;;2.63;76.35
58757;BME280;44527;47.460;19.016;2023-01-28T06:20:48;100443.75;;;2.74;77.07
58757;BME280;44527;47.460;19.016;2023-01-28T06:23:51;100445.81;;;2.91;75.37
58757;BME280;44527;47.460;19.016;2023-01-28T06:26:53;100449.88;;;2.71;77.01
58757;BME280;44527;47.460;19.016;2023-01-28T06:29:56;100448.72;;;2.82;77.31
58757;BME280;44527;47.460;19.016;2023-01-28T06:33:01;100453.94;;;2.80;76.83
58757;BME280;44527;47.460;19.016;2023-01-28T06:36:04;100457.84;;;2.65;78.21
58757;BME280;44527;47.460;19.016;2023-01-28T06:39:07;100457.44;;;2.79;78.02
58757;BME280;44527;47.460;19.016;2023-01-28T06:42:10;100464.81;;;2.91;77.18
58757;BME280;44527;47.460;19.016;2023-01-28T06:45:12;100468.84;;;3.00;77.02
58757;BME280;44527;47.460;19.016;2023-01-28T06:48:15;100472.06;;;2.80;77.05
58757;BME280;44527;47.460;19.016;2023-01-28T06:51:18;100481.31;;;2.61;77.86
58757;BME280;44527;47.460;19.016;2023-01-28T06:54:21;100485.69;;;2.59;78.62
58757;BME280;44527;47.460;19.016;2023-01-28T06:57:23;100489.00;;;2.64;77.99
58757;BME280;44527;47.460;19.016;2023-01-28T07:00:28;100492.06;;;2.76;77.71
58757;BME280;44527;47.460;19.016;2023-01-28T07:03:31;100499.38;;;2.90;77.16
58757;BME280;44527;47.460;19.016;2023-01-28T07:06:35;100498.25;;;2.72;78.00
58757;BME280;44527;47.460;19.016;2023-01-28T07:09:37;100501.09;;;2.91;77.22
58757;BME280;44527;47.460;19.016;2023-01-28T07:12:39;100500.91;;;2.97;77.46
58757;BME280;44527;47.460;19.016;2023-01-28T07:15:42;100502.69;;;3.22;76.69
58757;BME280;44527;47.460;19.016;2023-01-28T07:18:44;100512.88;;;3.02;77.46
58757;BME280;44527;47.460;19.016;2023-01-28T07:21:47;100524.25;;;2.97;77.65
58757;BME280;44527;47.460;19.016;2023-01-28T07:24:49;100516.16;;;3.07;77.22
58757;BME280;44527;47.460;19.016;2023-01-28T07:27:52;100532.25;;;2.90;78.39
58757;BME280;44527;47.460;19.016;2023-01-28T07:30:54;100529.63;;;2.91;78.05
58757;BME280;44527;47.460;19.016;2023-01-28T07:33:57;100530.28;;;2.70;79.84
58757;BME280;44527;47.460;19.016;2023-01-28T07:36:59;100525.13;;;2.68;80.33
58757;BME280;44527;47.460;19.016;2023-01-28T07:40:02;100524.44;;;2.91;78.28
58757;BME280;44527;47.460;19.016;2023-01-28T07:43:08;100528.41;;;3.02;77.71
58757;BME280;44527;47.460;19.016;2023-01-28T07:46:10;100535.00;;;3.12;77.63
58757;BME280;44527;47.460;19.016;2023-01-28T07:49:15;100530.97;;;3.03;77.94
58757;BME280;44527;47.460;19.016;2023-01-28T07:52:17;100528.69;;;2.94;77.97
58757;BME280;44527;47.460;19.016;2023-01-28T07:55:23;100529.75;;;2.87;79.05
58757;BME280;44527;47.460;19.016;2023-01-28T07:58:25;100530.41;;;2.93;78.47
58757;BME280;44527;47.460;19.016;2023-01-28T08:01:28;100534.22;;;3.10;78.83
58757;BME280;44527;47.460;19.016;2023-01-28T08:04:32;100538.91;;;3.25;78.38
58757;BME280;44527;47.460;19.016;2023-01-28T08:07:34;100535.56;;;3.21;77.32
58757;BME280;44527;47.460;19.016;2023-01-28T08:10:38;100538.84;;;3.27;78.01
58757;BME280;44527;47.460;19.016;2023-01-28T08:13:40;100539.25;;;3.41;78.35
58757;BME280;44527;47.460;19.016;2023-01-28T08:16:43;100544.12;;;3.50;76.67
58757;BME280;44527;47.460;19.016;2023-01-28T08:19:46;100546.44;;;3.58;76.89
58757;BME280;44527;47.460;19.016;2023-01-28T08:22:49;100545.56;;;3.59;77.13
58757;BME280;44527;47.460;19.016;2023-01-28T08:25:52;100546.84;;;3.72;76.98
58757;BME280;44527;47.460;19.016;2023-01-28T08:28:55;100549.22;;;3.78;76.67
58757;BME280;44527;47.460;19.016;2023-01-28T08:31:57;100554.72;;;3.94;76.35
58757;BME280;44527;47.460;19.016;2023-01-28T08:35:04;100556.44;;;3.95;76.38
58757;BME280;44527;47.460;19.016;2023-01-28T08:38:10;100562.50;;;3.94;76.77
58757;BME280;44527;47.460;19.016;2023-01-28T08:41:14;100563.25;;;3.98;76.41
58757;BME280;44527;47.460;19.016;2023-01-28T08:44:16;100569.75;;;3.86;76.70
58757;BME280;44527;47.460;19.016;2023-01-28T08:47:19;100566.44;;;3.81;78.10
58757;BME280;44527;47.460;19.016;2023-01-28T08:50:24;100573.84;;;3.66;78.90
58757;BME280;44527;47.460;19.016;2023-01-28T08:53:26;100567.28;;;3.81;79.85
58757;BME280;44527;47.460;19.016;2023-01-28T08:56:29;100572.09;;;3.67;79.38
58757;BME280;44527;47.460;19.016;2023-01-28T08:59:31;100574.88;;;3.87;80.06
58757;BME280;44527;47.460;19.016;2023-01-28T09:02:34;100579.63;;;4.00;77.31
58757;BME280;44527;47.460;19.016;2023-01-28T09:05:37;100579.00;;;3.93;78.26
58757;BME280;44527;47.460;19.016;2023-01-28T09:08:39;100585.00;;;3.95;78.01
58757;BME280;44527;47.460;19.016;2023-01-28T09:11:42;100572.37;;;3.84;79.35
58757;BME280;44527;47.460;19.016;2023-01-28T09:14:45;100583.25;;;3.96;77.98
58757;BME280;44527;47.460;19.016;2023-01-28T09:17:48;100591.72;;;4.01;78.45
58757;BME280;44527;47.460;19.016;2023-01-28T09:20:50;100591.72;;;4.01;79.87
58757;BME280;44527;47.460;19.016;2023-01-28T09:23:54;100600.03;;;3.85;77.61
58757;BME280;44527;47.460;19.016;2023-01-28T09:26:57;100588.16;;;3.78;77.96
58757;BME280;44527;47.460;19.016;2023-01-28T09:30:03;100593.66;;;3.69;77.97
58757;BME280;44527;47.460;19.016;2023-01-28T09:33:06;100600.19;;;4.06;77.35
58757;BME280;44527;47.460;19.016;2023-01-28T09:36:09;100600.72;;;4.15;76.96
58757;BME280;44527;47.460;19.016;2023-01-28T09:39:12;100602.28;;;3.96;77.81
58757;BME280;44527;47.460;19.016;2023-01-28T09:45:41;100595.63;;;3.87;79.55
58757;BME280;44527;47.460;19.016;2023-01-28T09:48:48;100595.84;;;3.81;80.02
58757;BME280;44527;47.460;19.016;2023-01-28T09:51:53;100597.91;;;3.72;80.64
58757;BME280;44527;47.460;19.016;2023-01-28T09:55:02;100594.06;;;3.83;78.97
58757;BME280;44527;47.460;19.016;2023-01-28T09:58:10;100599.47;;;4.02;79.73
58757;BME280;44527;47.460;19.016;2023-01-28T10:11:02;100586.00;;;3.91;79.40
58757;BME280;44527;47.460;19.016;2023-01-28T10:14:42;100587.41;;;4.00;79.00
58757;BME280;44527;47.460;19.016;2023-01-28T10:17:50;100587.34;;;4.26;78.32
58757;BME280;44527;47.460;19.016;2023-01-28T10:21:17;100587.91;;;4.58;76.82
58757;BME280;44527;47.460;19.016;2023-01-28T10:24:33;100595.94;;;4.28;76.36
58757;BME280;44527;47.460;19.016;2023-01-28T10:27:37;100588.38;;;4.46;78.04
58757;BME280;44527;47.460;19.016;2023-01-28T10:30:41;100590.84;;;4.72;76.00
58757;BME280;44527;47.460;19.016;2023-01-28T10:33:46;100588.28;;;4.94;73.78
58757;BME280;44527;47.460;19.016;2023-01-28T10:36:49;100591.25;;;5.07;74.52
58757;BME280;44527;47.460;19.016;2023-01-28T10:39:55;100584.41;;;5.26;72.33
58757;BME280;44527;47.460;19.016;2023-01-28T10:42:58;100592.91;;;5.08;71.47
58757;BME280;44527;47.460;19.016;2023-01-28T10:46:05;100588.28;;;4.94;73.10
58757;BME280;44527;47.460;19.016;2023-01-28T10:49:15;100592.87;;;5.10;72.26
58757;BME280;44527;47.460;19.016;2023-01-28T10:52:20;100575.56;;;5.30;71.97
58757;BME280;44527;47.460;19.016;2023-01-28T10:55:44;100584.22;;;5.31;70.90
58757;BME280;44527;47.460;19.016;2023-01-28T11:02:32;100577.19;;;5.33;70.93
58757;BME280;44527;47.460;19.016;2023-01-28T11:05:49;100586.00;;;5.09;72.12
58757;BME280;44527;47.460;19.016;2023-01-28T11:08:52;100582.16;;;5.39;70.77
58757;BME280;44527;47.460;19.016;2023-01-28T11:11:54;100583.16;;;5.15;69.68
58757;BME280;44527;47.460;19.016;2023-01-28T11:14:59;100584.88;;;4.92;70.07
58757;BME280;44527;47.460;19.016;2023-01-28T11:18:05;100577.84;;;4.72;71.87
58757;BME280;44527;47.460;19.016;2023-01-28T11:21:18;100585.06;;;4.88;70.11
58757;BME280;44527;47.460;19.016;2023-01-28T11:24:28;100580.63;;;4.68;70.88
58757;BME280;44527;47.460;19.016;2023-01-28T11:27:32;100577.88;;;4.49;70.79
58757;BME280;44527;47.460;19.016;2023-01-28T11:30:37;100574.66;;;4.66;73.00
58757;BME280;44527;47.460;19.016;2023-01-28T11:33:47;100581.06;;;4.79;71.50
58757;BME280;44527;47.460;19.016;2023-01-28T11:37:12;100568.38;;;4.93;70.35
58757;BME280;44527;47.460;19.016;2023-01-28T11:40:18;100565.09;;;4.66;71.49
58757;BME280;44527;47.460;19.016;2023-01-28T11:43:29;100568.38;;;4.48;71.90
58757;BME280;44527;47.460;19.016;2023-01-28T11:50:24;100567.59;;;4.46;71.88
58757;BME280;44527;47.460;19.016;2023-01-28T11:54:01;100567.91;;;4.60;70.93
58757;BME280;44527;47.460;19.016;2023-01-28T11:57:23;100574.66;;;4.88;70.49
58757;BME280;44527;47.460;19.016;2023-01-28T12:07:55;100554.81;;;5.07;67.18
58757;BME280;44527;47.460;19.016;2023-01-28T12:18:08;100547.44;;;5.18;67.75
58757;BME280;44527;47.460;19.016;2023-01-28T12:24:39;100546.66;;;4.94;67.34
58757;BME280;44527;47.460;19.016;2023-01-28T12:31:14;100556.69;;;5.25;66.56
58757;BME280;44527;47.460;19.016;2023-01-28T12:34:39;100552.97;;;5.31;66.75
58757;BME280;44527;47.460;19.016;2023-01-28T12:41:12;100554.19;;;5.22;64.59
58757;BME280;44527;47.460;19.016;2023-01-28T12:44:24;100547.12;;;5.26;64.18
58757;BME280;44527;47.460;19.016;2023-01-28T12:47:35;100546.09;;;5.30;65.18
58757;BME280;44527;47.460;19.016;2023-01-28T12:50:46;100550.72;;;5.23;63.95
58757;BME280;44527;47.460;19.016;2023-01-28T12:53:59;100556.75;;;5.24;63.71
58757;BME280;44527;47.460;19.016;2023-01-28T12:57:02;100559.03;;;5.32;63.58
58757;BME280;44527;47.460;19.016;2023-01-28T13:03:30;100556.38;;;5.11;63.11
58757;BME280;44527;47.460;19.016;2023-01-28T13:06:46;100557.78;;;4.98;63.46
58757;BME280;44527;47.460;19.016;2023-01-28T13:09:55;100564.97;;;5.13;64.38
58757;BME280;44527;47.460;19.016;2023-01-28T13:12:59;100567.34;;;5.19;62.78
58757;BME280;44527;47.460;19.016;2023-01-28T13:16:04;100566.31;;;5.23;63.75
58757;BME280;44527;47.460;19.016;2023-01-28T13:22:31;100573.72;;;5.55;63.17
58757;BME280;44527;47.460;19.016;2023-01-28T13:25:34;100572.28;;;5.25;62.53
58757;BME280;44527;47.460;19.016;2023-01-28T13:28:37;100578.34;;;5.26;62.70
58757;BME280;44527;47.460;19.016;2023-01-28T13:31:42;100583.63;;;5.02;64.28
58757;BME280;44527;47.460;19.016;2023-01-28T13:34:59;100582.84;;;5.00;63.41
58757;BME280;44527;47.460;19.016;2023-01-28T13:38:15;100584.28;;;5.07;63.75
58757;BME280;44527;47.460;19.016;2023-01-28T13:41:19;100585.00;;;5.11;64.08
58757;BME280;44527;47.460;19.016;2023-01-28T13:44:32;100587.84;;;5.05;63.19
58757;BME280;44527;47.460;19.016;2023-01-28T13:47:36;100597.53;;;5.01;64.50
58757;BME280;44527;47.460;19.016;2023-01-28T13:50:41;100601.09;;;4.99;63.27
58757;BME280;44527;47.460;19.016;2023-01-28T13:53:47;100599.25;;;5.02;62.86
58757;BME280;44527;47.460;19.016;2023-01-28T14:11:22;100614.91;;;5.01;63.09
58757;BME280;44527;47.460;19.016;2023-01-28T14:20:45;100618.34;;;5.01;66.83
58757;BME280;44527;47.460;19.016;2023-01-28T14:23:51;100619.56;;;5.15;68.33
58757;BME280;44527;47.460;19.016;2023-01-28T14:30:27;100632.03;;;5.06;67.91
58757;BME280;44527;47.460;19.016;2023-01-28T14:33:34;100629.50;;;4.81;69.17
58757;BME280;44527;47.460;19.016;2023-01-28T14:36:40;100634.59;;;4.84;69.03
58757;BME280;44527;47.460;19.016;2023-01-28T14:39:52;100634.84;;;4.78;70.10
58757;BME280;44527;47.460;19.016;2023-01-28T14:42:59;100631.94;;;4.86;69.69
58757;BME280;44527;47.460;19.016;2023-01-28T14:46:12;100634.91;;;4.99;68.99
58757;BME280;44527;47.460;19.016;2023-01-28T14:49:34;100634.97;;;4.97;69.81
58757;BME280;44527;47.460;19.016;2023-01-28T14:56:19;100643.66;;;4.51;71.79
58757;BME280;44527;47.460;19.016;2023-01-28T14:59:47;100643.94;;;4.67;71.64
58757;BME280;44527;47.460;19.016;2023-01-28T15:02:53;100644.28;;;4.57;72.13
58757;BME280;44527;47.460;19.016;2023-01-28T15:06:15;100650.00;;;4.42;72.47
58757;BME280;44527;47.460;19.016;2023-01-28T15:09:22;100654.72;;;4.56;72.74
58757;BME280;44527;47.460;19.016;2023-01-28T15:12:24;100655.44;;;4.36;72.80
58757;BME280;44527;47.460;19.016;2023-01-28T15:15:34;100648.91;;;4.24;73.67
58757;BME280;44527;47.460;19.016;2023-01-28T15:18:42;100655.53;;;4.33;73.61
58757;BME280;44527;47.460;19.016;2023-01-28T15:21:45;100659.09;;;4.30;73.22
58757;BME280;44527;47.460;19.016;2023-01-28T15:24:48;100665.56;;;4.19;74.17
58757;BME280;44527;47.460;19.016;2023-01-28T15:27:52;100664.56;;;4.23;73.58
58757;BME280;44527;47.460;19.016;2023-01-28T15:30:58;100672.78;;;4.10;74.00
58757;BME280;44527;47.460;19.016;2023-01-28T15:34:15;100679.91;;;4.04;74.34
58757;BME280;44527;47.460;19.016;2023-01-28T15:37:20;100674.16;;;3.96;74.85
58757;BME280;44527;47.460;19.016;2023-01-28T15:40:23;100687.38;;;3.88;75.83
58757;BME280;44527;47.460;19.016;2023-01-28T15:43:34;100683.78;;;3.92;75.66
58757;BME280;44527;47.460;19.016;2023-01-28T15:46:39;100681.84;;;3.99;75.13
58757;BME280;44527;47.460;19.016;2023-01-28T15:49:44;100688.41;;;3.82;76.29
58757;BME280;44527;47.460;19.016;2023-01-28T15:52:49;100689.97;;;3.88;75.77
58757;BME280;44527;47.460;19.016;2023-01-28T15:56:03;100698.53;;;3.63;76.49
58757;BME280;44527;47.460;19.016;2023-01-28T15:59:23;100707.75;;;3.74;76.78
58757;BME280;44527;47.460;19.016;2023-01-28T16:02:26;100705.28;;;3.69;76.75
58757;BME280;44527;47.460;19.016;2023-01-28T16:05:41;100709.62;;;3.68;76.91
58757;BME280;44527;47.460;19.016;2023-01-28T16:08:50;100704.44;;;3.68;76.65
58757;BME280;44527;47.460;19.016;2023-01-28T16:11:53;100708.91;;;3.65;77.16
58757;BME280;44527;47.460;19.016;2023-01-28T16:15:02;100717.72;;;3.59;77.58
58757;BME280;44527;47.460;19.016;2023-01-28T16:18:40;100720.03;;;3.68;77.33
58757;BME280;44527;47.460;19.016;2023-01-28T16:21:44;100726.06;;;3.69;77.48
58757;BME280;44527;47.460;19.016;2023-01-28T16:24:50;100725.31;;;3.65;77.16
58757;BME280;44527;47.460;19.016;2023-01-28T16:27:54;100728.72;;;3.67;77.31
58757;BME280;44527;47.460;19.016;2023-01-28T16:30:58;100726.72;;;3.48;78.58
58757;BME280;44527;47.460;19.016;2023-01-28T16:34:01;100740.06;;;3.63;77.56
58757;BME280;44527;47.460;19.016;2023-01-28T16:37:07;100734.97;;;3.60;77.90
58757;BME280;44527;47.460;19.016;2023-01-28T16:40:13;100736.06;;;3.53;78.65
58757;BME280;44527;47.460;19.016;2023-01-28T16:43:16;100746.63;;;3.47;78.80
58757;BME280;44527;47.460;19.016;2023-01-28T16:46:19;100742.09;;;3.26;79.90
58757;BME280;44527;47.460;19.016;2023-01-28T16:49:22;100741.06;;;3.31;80.04
58757;BME280;44527;47.460;19.016;2023-01-28T16:52:25;100753.22;;;3.29;79.93
58757;BME280;44527;47.460;19.016;2023-01-28T16:55:28;100749.81;;;3.27;79.76
58757;BME280;44527;47.460;19.016;2023-01-28T16:58:31;100751.47;;;3.30;79.90
58757;BME280;44527;47.460;19.016;2023-01-28T17:01:34;100752.09;;;3.38;80.05
58757;BME280;44527;47.460;19.016;2023-01-28T17:04:37;100752.59;;;3.21;80.08
58757;BME280;44527;47.460;19.016;2023-01-28T17:07:40;100747.91;;;3.34;79.78
58757;BME280;44527;47.460;19.016;2023-01-28T17:10:42;100749.59;;;3.35;79.44
58757;BME280;44527;47.460;19.016;2023-01-28T17:13:45;100745.87;;;3.43;79.08
58757;BME280;44527;47.460;19.016;2023-01-28T17:16:47;100756.34;;;3.40;78.58
58757;BME280;44527;47.460;19.016;2023-01-28T17:19:49;100759.84;;;3.39;78.30
58757;BME280;44527;47.460;19.016;2023-01-28T17:22:52;100762.94;;;3.22;79.08
58757;BME280;44527;47.460;19.016;2023-01-28T17:25:54;100775.91;;;3.22;78.80
58757;BME280;44527;47.460;19.016;2023-01-28T17:28:57;100774.34;;;3.17;78.42
58757;BME280;44527;47.460;19.016;2023-01-28T17:31:59;100777.06;;;3.12;78.41
58757;BME280;44527;47.460;19.016;2023-01-28T17:35:02;100766.66;;;3.43;76.99
58757;BME280;44527;47.460;19.016;2023-01-28T17:38:04;100774.06;;;3.26;77.33
58757;BME280;44527;47.460;19.016;2023-01-28T17:41:07;100780.28;;;3.20;77.17
58757;BME280;44527;47.460;19.016;2023-01-28T17:44:12;100784.31;;;3.31;76.70
58757;BME280;44527;47.460;19.016;2023-01-28T17:47:17;100787.69;;;3.34;76.84
58757;BME280;44527;47.460;19.016;2023-01-28T17:50:20;100796.31;;;3.35;75.96
58757;BME280;44527;47.460;19.016;2023-01-28T17:53:24;100794.81;;;3.26;76.97
58757;BME280;44527;47.460;19.016;2023-01-28T17:56:27;100798.09;;;3.33;76.48